createdAt,value
2022-08-20T00:01:16.602Z,99141.19
2022-08-20T00:03:44.687Z,99132.94
2022-08-20T00:06:20.771Z,99144.91
2022-08-20T00:08:48.533Z,99173.56
2022-08-20T00:11:26.648Z,99186.59
2022-08-20T00:13:59.659Z,99207.13
2022-08-20T00:16:32.397Z,99218.06
2022-08-20T00:19:07.457Z,99156.91
2022-08-20T00:21:36.554Z,99125.50
2022-08-20T00:24:04.903Z,99154.28
2022-08-20T00:26:32.430Z,99259.44
2022-08-20T00:28:59.648Z,99190.22
2022-08-20T00:31:28.738Z,99190.78
2022-08-20T00:33:55.929Z,99203.50
2022-08-20T00:36:32.268Z,99226.19
2022-08-20T00:39:01.237Z,99192.59
2022-08-20T00:41:29.451Z,99172.00
2022-08-20T00:44:22.557Z,99165.34
2022-08-20T00:46:51.483Z,99153.44
2022-08-20T00:49:27.860Z,99093.88
2022-08-20T00:52:05.958Z,99134.72
2022-08-20T00:54:49.242Z,99201.44
2022-08-20T00:57:58.926Z,99135.09
2022-08-20T01:00:26.013Z,99171.88
2022-08-20T01:02:54.043Z,99252.84
2022-08-20T01:05:23.552Z,99194.84
2022-08-20T01:07:56.771Z,99191.00
2022-08-20T01:10:34.941Z,99198.00
2022-08-20T01:13:11.440Z,99236.00
2022-08-20T01:15:43.436Z,99188.59
2022-08-20T01:18:16.481Z,99167.81
2022-08-20T01:20:58.986Z,99178.44
2022-08-20T01:23:53.247Z,99169.38
2022-08-20T01:26:25.920Z,99205.63
2022-08-20T01:29:04.266Z,99161.47
2022-08-20T01:31:36.991Z,99163.13
2022-08-20T01:34:08.265Z,99150.28
2022-08-20T01:36:51.841Z,99233.81
2022-08-20T01:39:32.974Z,99208.94
2022-08-20T01:42:22.489Z,99232.06
2022-08-20T01:44:50.342Z,99203.78
2022-08-20T01:47:28.129Z,99201.50
2022-08-20T01:50:08.010Z,99175.84
2022-08-20T01:53:12.069Z,99208.56
2022-08-20T01:55:39.913Z,99238.53
2022-08-20T01:58:06.952Z,99232.97
2022-08-20T02:00:35.645Z,99231.19
2022-08-20T02:03:04.109Z,99222.13
2022-08-20T02:05:33.230Z,99151.59
2022-08-20T02:08:02.015Z,99182.84
2022-08-20T02:10:31.928Z,99144.59
2022-08-20T02:13:00.702Z,99163.97
2022-08-20T02:15:35.027Z,99221.50
2022-08-20T02:18:14.984Z,99146.59
2022-08-20T02:20:43.479Z,99179.84
2022-08-20T02:23:12.364Z,99234.34
2022-08-20T02:25:42.074Z,99235.72
2022-08-20T02:28:12.655Z,99246.03
2022-08-20T02:30:45.904Z,99181.19
2022-08-20T02:33:17.326Z,99195.84
2022-08-20T02:35:49.131Z,99185.69
2022-08-20T02:38:17.277Z,99152.81
2022-08-20T02:40:46.670Z,99158.47
2022-08-20T02:43:14.474Z,99188.41
2022-08-20T02:45:44.230Z,99151.91
2022-08-20T02:48:21.439Z,99180.53
2022-08-20T02:51:01.419Z,99160.84
2022-08-20T02:53:33.242Z,99167.91
2022-08-20T02:56:01.032Z,99169.72
2022-08-20T02:58:28.569Z,99132.38
2022-08-20T03:00:57.089Z,99134.91
2022-08-20T03:03:25.455Z,99131.84
2022-08-20T03:05:57.097Z,99136.06
2022-08-20T03:08:25.847Z,99167.28
2022-08-20T03:10:53.449Z,99161.69
2022-08-20T03:13:22.185Z,99186.34
2022-08-20T03:15:58.651Z,99198.00
2022-08-20T03:18:33.129Z,99215.28
2022-08-20T03:21:00.442Z,99172.00
2022-08-20T03:23:27.563Z,99152.13
2022-08-20T03:25:54.667Z,99109.34
2022-08-20T03:28:21.785Z,99198.19
2022-08-20T03:30:50.521Z,99140.59
2022-08-20T03:33:20.154Z,99154.03
2022-08-20T03:35:48.135Z,99180.47
2022-08-20T03:38:32.236Z,99151.22
2022-08-20T03:41:02.221Z,99168.16
2022-08-20T03:43:29.941Z,99186.81
2022-08-20T03:45:57.296Z,99203.41
2022-08-20T03:48:25.298Z,99212.97
2022-08-20T03:50:53.173Z,99193.03
2022-08-20T03:53:20.158Z,99205.34
2022-08-20T03:55:54.357Z,99169.72
2022-08-20T03:58:33.301Z,99223.94
2022-08-20T04:01:07.273Z,99197.16
2022-08-20T04:03:36.259Z,99193.63
2022-08-20T04:06:04.379Z,99175.31
2022-08-20T04:08:31.785Z,99193.63
2022-08-20T04:10:59.772Z,99185.81
2022-08-20T04:13:30.676Z,99237.31
2022-08-20T04:16:01.112Z,99194.53
2022-08-20T04:18:28.314Z,99214.53
2022-08-20T04:20:55.638Z,99208.16
2022-08-20T04:23:23.131Z,99212.34
2022-08-20T04:25:50.595Z,99190.34
2022-08-20T04:28:27.080Z,99245.53
2022-08-20T04:30:59.562Z,99223.41
2022-08-20T04:33:33.995Z,99225.00
2022-08-20T04:36:05.561Z,99210.78
2022-08-20T04:38:50.169Z,99211.63
2022-08-20T04:41:22.723Z,99195.22
2022-08-20T04:43:54.053Z,99256.34
2022-08-20T04:46:25.576Z,99226.84
2022-08-20T04:48:53.839Z,99213.03
2022-08-20T04:51:23.287Z,99198.78
2022-08-20T04:53:54.457Z,99221.25
2022-08-20T04:56:24.515Z,99269.63
2022-08-20T04:58:54.816Z,99214.44
2022-08-20T05:01:24.030Z,99218.97
2022-08-20T05:03:54.629Z,99230.47
2022-08-20T05:06:26.104Z,99209.25
2022-08-20T05:08:54.741Z,99262.66
2022-08-20T05:11:34.620Z,99267.56
2022-08-20T05:14:09.194Z,99255.75
2022-08-20T05:16:39.320Z,99237.53
2022-08-20T05:19:09.739Z,99228.31
2022-08-20T05:21:37.870Z,99259.78
2022-08-20T05:24:06.664Z,99226.72
2022-08-20T05:26:34.051Z,99223.41
2022-08-20T05:29:04.660Z,99208.44
2022-08-20T05:31:33.580Z,99258.84
2022-08-20T05:34:12.694Z,99235.38
2022-08-20T05:36:48.279Z,99239.53
2022-08-20T05:39:20.813Z,99201.88
2022-08-20T05:41:49.917Z,99192.06
2022-08-20T05:44:18.620Z,99212.75
2022-08-20T05:46:48.173Z,99239.38
2022-08-20T05:49:20.068Z,99227.34
2022-08-20T05:51:48.862Z,99249.16
2022-08-20T05:54:16.043Z,99245.50
2022-08-20T05:56:43.452Z,99199.75
2022-08-20T05:59:12.706Z,99233.69
2022-08-20T06:01:41.265Z,99241.84
2022-08-20T06:04:26.930Z,99233.78
2022-08-20T06:07:07.078Z,99249.63
2022-08-20T06:09:36.420Z,99256.31
2022-08-20T06:12:07.758Z,99261.19
2022-08-20T06:14:35.886Z,99274.78
2022-08-20T06:17:10.822Z,99258.09
2022-08-20T06:19:44.480Z,99202.88
2022-08-20T06:22:19.087Z,99201.16
2022-08-20T06:24:49.120Z,99184.22
2022-08-20T06:27:17.473Z,99225.94
2022-08-20T06:29:44.715Z,99233.25
2022-08-20T06:32:12.339Z,99256.16
2022-08-20T06:34:49.992Z,99257.34
2022-08-20T06:37:27.430Z,99241.31
2022-08-20T06:40:10.075Z,99242.06
2022-08-20T06:42:45.727Z,99239.09
2022-08-20T06:45:24.513Z,99239.69
2022-08-20T06:47:58.312Z,99232.09
2022-08-20T06:50:33.715Z,99264.41
2022-08-20T06:53:00.961Z,99245.91
2022-08-20T06:55:28.028Z,99284.63
2022-08-20T06:58:06.050Z,99249.00
2022-08-20T07:00:35.578Z,99241.69
2022-08-20T07:03:04.322Z,99248.31
2022-08-20T07:05:35.793Z,99269.72
2022-08-20T07:08:04.343Z,99279.78
2022-08-20T07:10:32.043Z,99295.88
2022-08-20T07:13:00.549Z,99259.84
2022-08-20T07:15:28.200Z,99248.41
2022-08-20T07:18:01.358Z,99244.56
2022-08-20T07:20:31.686Z,99219.56
2022-08-20T07:22:59.586Z,99267.31
2022-08-20T07:25:27.235Z,99278.19
2022-08-20T07:28:02.302Z,99242.31
2022-08-20T07:30:56.473Z,99277.78
2022-08-20T07:33:26.509Z,99268.03
2022-08-20T07:35:57.700Z,99310.28
2022-08-20T07:38:27.168Z,99317.94
2022-08-20T07:41:00.173Z,99276.44
2022-08-20T07:43:28.302Z,99298.63
2022-08-20T07:46:00.854Z,99330.28
2022-08-20T07:48:32.450Z,99330.59
2022-08-20T07:51:05.086Z,99305.09
2022-08-20T07:53:35.993Z,99339.66
2022-08-20T07:56:07.608Z,99301.78
2022-08-20T07:58:38.885Z,99318.31
2022-08-20T08:01:07.596Z,99322.13
2022-08-20T08:03:41.108Z,99368.56
2022-08-20T08:06:28.706Z,99258.72
2022-08-20T08:09:11.849Z,99270.34
2022-08-20T08:11:47.293Z,99300.38
2022-08-20T08:14:17.211Z,99333.13
2022-08-20T08:16:45.808Z,99278.44
2022-08-20T08:19:17.238Z,99324.13
2022-08-20T08:21:44.506Z,99368.63
2022-08-20T08:24:15.486Z,99303.50
2022-08-20T08:26:46.509Z,99349.34
2022-08-20T08:29:13.667Z,99328.16
2022-08-20T08:31:41.289Z,99309.72
2022-08-20T08:34:09.115Z,99371.59
2022-08-20T08:36:36.151Z,99346.16
2022-08-20T08:39:03.163Z,99360.25
2022-08-20T08:41:35.569Z,99332.44
2022-08-20T08:44:23.690Z,99338.28
2022-08-20T08:47:13.824Z,99308.78
2022-08-20T08:49:40.899Z,99322.78
2022-08-20T08:52:20.015Z,99357.59
2022-08-20T08:54:52.839Z,99397.09
2022-08-20T08:57:20.176Z,99344.41
2022-08-20T09:00:03.525Z,99351.97
2022-08-20T09:02:36.271Z,99369.94
2022-08-20T09:05:16.102Z,99345.47
2022-08-20T09:07:48.332Z,99350.22
2022-08-20T09:10:17.675Z,99328.16
2022-08-20T09:12:50.811Z,99355.63
2022-08-20T09:15:21.242Z,99325.00
2022-08-20T09:17:48.774Z,99358.06
2022-08-20T09:20:15.939Z,99362.91
2022-08-20T09:22:42.906Z,99381.94
2022-08-20T09:25:10.337Z,99349.72
2022-08-20T09:27:37.569Z,99373.81
2022-08-20T09:30:09.808Z,99361.53
2022-08-20T09:32:36.845Z,99315.03
2022-08-20T09:35:09.259Z,99379.75
2022-08-20T09:37:37.801Z,99332.75
2022-08-20T09:40:08.886Z,99347.59
2022-08-20T09:42:41.267Z,99342.44
2022-08-20T09:45:11.410Z,99329.91
2022-08-20T09:47:55.116Z,99351.19
2022-08-20T09:50:31.809Z,99337.97
2022-08-20T09:53:01.014Z,99347.66
2022-08-20T09:55:45.510Z,99311.19
2022-08-20T09:58:34.323Z,99376.81
2022-08-20T10:01:17.828Z,99354.50
2022-08-20T10:03:49.511Z,99341.38
2022-08-20T10:06:20.436Z,99355.59
2022-08-20T10:08:49.043Z,99320.41
2022-08-20T10:11:17.976Z,99345.97
2022-08-20T10:13:45.942Z,99371.59
2022-08-20T10:16:13.260Z,99321.66
2022-08-20T10:18:40.334Z,99317.91
2022-08-20T10:21:11.832Z,99327.63
2022-08-20T10:23:38.861Z,99343.50
2022-08-20T10:26:09.116Z,99297.78
2022-08-20T10:28:36.725Z,99399.59
2022-08-20T10:31:07.418Z,99304.16
2022-08-20T10:33:35.977Z,99363.22
2022-08-20T10:36:12.387Z,99318.06
2022-08-20T10:38:39.665Z,99329.78
2022-08-20T10:41:06.713Z,99293.81
2022-08-20T10:43:33.860Z,99287.19
2022-08-20T10:46:01.282Z,99323.19
2022-08-20T10:48:28.591Z,99298.19
2022-08-20T10:50:55.709Z,99253.06
2022-08-20T10:53:22.737Z,99239.81
2022-08-20T10:55:49.824Z,99284.75
2022-08-20T10:58:16.928Z,99324.75
2022-08-20T11:00:45.758Z,99338.41
2022-08-20T11:03:13.396Z,99259.25
2022-08-20T11:05:40.497Z,99326.84
2022-08-20T11:08:07.661Z,99298.25
2022-08-20T11:10:36.758Z,99274.97
2022-08-20T11:13:08.335Z,99295.00
2022-08-20T11:15:42.519Z,99340.59
2022-08-20T11:18:10.743Z,99288.63
2022-08-20T11:20:37.804Z,99292.34
2022-08-20T11:23:05.209Z,99330.09
2022-08-20T11:25:32.473Z,99276.69
2022-08-20T11:28:00.212Z,99245.25
2022-08-20T11:30:33.134Z,99284.69
2022-08-20T11:33:01.243Z,99281.88
2022-08-20T11:35:43.487Z,99269.78
2022-08-20T11:38:17.852Z,99263.13
2022-08-20T11:40:46.832Z,99235.63
2022-08-20T11:43:16.259Z,99254.72
2022-08-20T11:45:52.577Z,99244.19
2022-08-20T11:48:20.135Z,99232.66
2022-08-20T11:50:48.784Z,99245.25
2022-08-20T11:53:16.520Z,99196.50
2022-08-20T11:55:44.043Z,99164.84
2022-08-20T11:58:11.745Z,99273.66
2022-08-20T12:00:39.417Z,99244.03
2022-08-20T12:03:09.263Z,99265.53
2022-08-20T12:05:38.761Z,99257.75
2022-08-20T12:08:06.578Z,99254.47
2022-08-20T12:10:34.379Z,99230.94
2022-08-20T12:13:02.664Z,99241.19
2022-08-20T12:15:33.403Z,99183.47
2022-08-20T12:18:01.811Z,99209.91
2022-08-20T12:20:28.812Z,99205.75
2022-08-20T12:22:56.122Z,99284.31
2022-08-20T12:25:23.388Z,99268.06
2022-08-20T12:27:50.433Z,99266.56
2022-08-20T12:30:22.867Z,99261.94
2022-08-20T12:32:50.355Z,99189.09
2022-08-20T12:35:18.769Z,99232.34
2022-08-20T12:37:47.024Z,99218.06
2022-08-20T12:40:31.727Z,99268.25
2022-08-20T12:43:01.739Z,99316.97
2022-08-20T12:45:29.883Z,99230.91
2022-08-20T12:48:10.664Z,99257.81
2022-08-20T12:50:40.677Z,99246.47
2022-08-20T12:53:08.749Z,99254.97
2022-08-20T12:55:36.024Z,99247.28
2022-08-20T12:58:07.390Z,99305.66
2022-08-20T13:00:44.280Z,99321.69
2022-08-20T13:03:17.461Z,99274.47
2022-08-20T13:05:44.466Z,99280.06
2022-08-20T13:08:12.923Z,99249.56
2022-08-20T13:10:45.993Z,99314.69
2022-08-20T13:13:20.557Z,99285.09
2022-08-20T13:15:50.758Z,99283.22
2022-08-20T13:18:19.108Z,99263.75
2022-08-20T13:20:46.656Z,99253.56
2022-08-20T13:23:13.626Z,99274.03
2022-08-20T13:25:40.841Z,99251.16
2022-08-20T13:28:08.086Z,99280.84
2022-08-20T13:30:38.715Z,99249.34
2022-08-20T13:33:06.074Z,99256.47
2022-08-20T13:35:33.270Z,99273.13
2022-08-20T13:38:00.348Z,99241.47
2022-08-20T13:40:27.949Z,99222.22
2022-08-20T13:42:55.084Z,99251.69
2022-08-20T13:45:22.514Z,99204.66
2022-08-20T13:47:54.385Z,99279.97
2022-08-20T13:50:24.406Z,99244.38
2022-08-20T13:52:51.599Z,99244.03
2022-08-20T13:55:22.711Z,99256.78
2022-08-20T13:57:51.570Z,99286.22
2022-08-20T14:00:31.122Z,99263.06
2022-08-20T14:03:04.256Z,99246.94
2022-08-20T14:05:33.326Z,99303.19
2022-08-20T14:08:13.882Z,99254.31
2022-08-20T14:10:42.722Z,99290.66
2022-08-20T14:13:14.616Z,99284.28
2022-08-20T14:15:44.900Z,99255.50
2022-08-20T14:18:14.735Z,99191.13
2022-08-20T14:20:43.051Z,99231.81
2022-08-20T14:23:13.253Z,99210.78
2022-08-20T14:25:40.551Z,99199.66
2022-08-20T14:28:19.145Z,99175.50
2022-08-20T14:30:53.198Z,99115.84
2022-08-20T14:33:22.154Z,99180.25
2022-08-20T14:35:49.904Z,99215.19
2022-08-20T14:38:18.015Z,99196.78
2022-08-20T14:40:46.390Z,99231.53
2022-08-20T14:43:13.636Z,99230.44
2022-08-20T14:45:40.742Z,99260.00
2022-08-20T14:48:09.428Z,99248.66
2022-08-20T14:50:37.398Z,99292.63
2022-08-20T14:53:05.272Z,99219.88
2022-08-20T14:55:37.569Z,99194.31
2022-08-20T14:58:10.575Z,99275.41
2022-08-20T15:00:38.565Z,99200.69
2022-08-20T15:03:05.955Z,99205.72
2022-08-20T15:05:33.788Z,99241.38
2022-08-20T15:08:00.898Z,99233.06
2022-08-20T15:10:33.499Z,99135.88
2022-08-20T15:13:02.661Z,99166.72
2022-08-20T15:15:30.294Z,99129.06
2022-08-20T15:18:02.534Z,99238.56
2022-08-20T15:20:33.603Z,99109.47
2022-08-20T15:23:01.450Z,99192.31
2022-08-20T15:25:36.136Z,99132.88
2022-08-20T15:28:05.933Z,99197.41
2022-08-20T15:30:35.914Z,99287.78
2022-08-20T15:33:03.326Z,99139.19
2022-08-20T15:35:30.873Z,99219.34
2022-08-20T15:37:59.431Z,99185.25
2022-08-20T15:40:30.606Z,99206.72
2022-08-20T15:42:59.962Z,99251.19
2022-08-20T15:45:27.468Z,99204.72
2022-08-20T15:48:11.902Z,99243.75
2022-08-20T15:51:27.462Z,99208.56
2022-08-20T15:54:13.735Z,99234.09
2022-08-20T15:57:11.911Z,99199.19
2022-08-20T16:00:21.841Z,99230.06
2022-08-20T16:03:19.978Z,99260.44
2022-08-20T16:06:17.317Z,99247.78
2022-08-20T16:09:09.200Z,99265.09
2022-08-20T16:12:10.397Z,99193.00
2022-08-20T16:14:43.828Z,99257.72
2022-08-20T16:17:17.799Z,99180.44
2022-08-20T16:20:12.003Z,99222.25
2022-08-20T16:22:44.931Z,99289.38
2022-08-20T16:25:13.559Z,99207.41
2022-08-20T16:27:49.415Z,99273.44
2022-08-20T16:30:56.301Z,99222.72
2022-08-20T16:33:28.649Z,99217.41
2022-08-20T16:36:13.570Z,99212.97
2022-08-20T16:38:44.037Z,99266.84
2022-08-20T16:41:16.280Z,99233.25
2022-08-20T16:44:02.534Z,99181.34
2022-08-20T16:46:38.078Z,99225.88
2022-08-20T16:49:13.929Z,99193.16
2022-08-20T16:51:52.060Z,99235.88
2022-08-20T16:54:28.245Z,99209.16
2022-08-20T16:57:06.212Z,99221.53
2022-08-20T16:59:33.982Z,99180.69
2022-08-20T17:02:11.387Z,99242.75
2022-08-20T17:04:59.556Z,99220.59
2022-08-20T17:07:57.343Z,99199.63
2022-08-20T17:10:40.165Z,99178.03
2022-08-20T17:13:16.106Z,99253.16
2022-08-20T17:15:44.793Z,99206.38
2022-08-20T17:18:40.282Z,99181.78
2022-08-20T17:21:23.485Z,99203.69
2022-08-20T17:24:16.839Z,99217.94
2022-08-20T17:26:56.834Z,99243.59
2022-08-20T17:29:29.591Z,99169.59
2022-08-20T17:32:28.777Z,99192.59
2022-08-20T17:35:01.876Z,99237.53
2022-08-20T17:37:41.940Z,99217.75
2022-08-20T17:40:17.526Z,99226.19
2022-08-20T17:43:02.253Z,99185.88
2022-08-20T17:45:42.766Z,99225.25
2022-08-20T17:48:24.287Z,99217.31
2022-08-20T17:51:00.486Z,99226.22
2022-08-20T17:53:48.660Z,99254.38
2022-08-20T17:56:34.897Z,99183.06
2022-08-20T17:59:59.900Z,99223.09
2022-08-20T18:02:17.075Z,99243.13
2022-08-20T18:04:46.152Z,99219.34
2022-08-20T18:07:27.757Z,99236.66
2022-08-20T18:10:18.405Z,99169.16
2022-08-20T18:13:14.367Z,99162.72
2022-08-20T18:15:58.656Z,99169.13
2022-08-20T18:18:52.911Z,99161.72
2022-08-20T18:21:45.284Z,99185.94
2022-08-20T18:24:53.421Z,99162.19
2022-08-20T18:27:25.471Z,99171.31
2022-08-20T18:30:00.287Z,99194.13
2022-08-20T18:32:27.519Z,99198.78
2022-08-20T18:35:07.047Z,99177.84
2022-08-20T18:37:34.017Z,99150.50
2022-08-20T18:40:33.546Z,99195.44
2022-08-20T18:43:28.017Z,99192.03
2022-08-20T18:45:55.041Z,99229.94
2022-08-20T18:48:25.016Z,99222.88
2022-08-20T18:50:56.734Z,99199.34
2022-08-20T18:53:34.161Z,99264.25
2022-08-20T18:56:13.587Z,99153.31
2022-08-20T18:59:09.605Z,99228.47
2022-08-20T19:01:38.730Z,99226.47
2022-08-20T19:04:28.134Z,99174.91
2022-08-20T19:07:04.382Z,99272.22
2022-08-20T19:10:27.897Z,99116.44
2022-08-20T19:13:25.959Z,99271.41
2022-08-20T19:16:04.029Z,99295.38
2022-08-20T19:18:46.942Z,99185.59
2022-08-20T19:21:18.881Z,99245.38
2022-08-20T19:23:54.222Z,99181.50
2022-08-20T19:26:25.397Z,99102.19
2022-08-20T19:29:10.676Z,99253.75
2022-08-20T19:31:38.080Z,99225.28
2022-08-20T19:34:35.778Z,99228.19
2022-08-20T19:37:35.364Z,99225.16
2022-08-20T19:40:29.000Z,99200.38
2022-08-20T19:43:01.343Z,99194.75
2022-08-20T19:45:45.458Z,99270.06
2022-08-20T19:49:14.096Z,99283.00
2022-08-20T19:52:38.218Z,99303.19
2022-08-20T19:55:13.352Z,99192.72
2022-08-20T19:57:48.750Z,99185.69
2022-08-20T20:00:16.353Z,99287.75
2022-08-20T20:02:44.017Z,99209.16
2022-08-20T20:05:11.559Z,99279.03
2022-08-20T20:07:52.311Z,99184.69
2022-08-20T20:10:32.750Z,99170.41
2022-08-20T20:13:16.676Z,99319.56
2022-08-20T20:15:44.266Z,99214.22
2022-08-20T20:18:12.986Z,99207.63
2022-08-20T20:20:58.108Z,99273.13
2022-08-20T20:23:45.597Z,99197.66
2022-08-20T20:26:20.181Z,99233.81
2022-08-20T20:28:53.461Z,99193.63
2022-08-20T20:31:36.377Z,99131.50
2022-08-20T20:34:11.547Z,99274.56
2022-08-20T20:36:42.047Z,99249.91
2022-08-20T20:39:33.080Z,99227.53
2022-08-20T20:42:08.749Z,99309.66
2022-08-20T20:44:43.245Z,99205.34
2022-08-20T20:47:33.754Z,99236.28
2022-08-20T20:50:07.664Z,99252.50
2022-08-20T20:52:48.392Z,99140.38
2022-08-20T20:55:22.902Z,99210.47
2022-08-20T20:57:51.653Z,99162.47
2022-08-20T21:00:21.909Z,99156.56
2022-08-20T21:02:49.661Z,99302.97
2022-08-20T21:05:20.292Z,99173.31
2022-08-20T21:07:52.103Z,99199.22
2022-08-20T21:10:22.959Z,99161.41
2022-08-20T21:12:52.894Z,99224.19
2022-08-20T21:15:23.726Z,99310.28
2022-08-20T21:17:51.738Z,99270.75
2022-08-20T21:20:21.013Z,99123.78
2022-08-20T21:22:48.051Z,99130.16
2022-08-20T21:25:15.239Z,99279.31
2022-08-20T21:27:47.275Z,99186.13
2022-08-20T21:30:16.591Z,99189.31
2022-08-20T21:32:43.580Z,99188.34
2022-08-20T21:35:11.620Z,99172.50
2022-08-20T21:37:38.840Z,99220.00
2022-08-20T21:40:09.447Z,99253.13
2022-08-20T21:42:39.740Z,99233.59
2022-08-20T21:45:11.429Z,99286.59
2022-08-20T21:47:38.552Z,99212.69
2022-08-20T21:50:08.102Z,99253.22
2022-08-20T21:52:35.947Z,99198.34
2022-08-20T21:55:03.314Z,99209.56
2022-08-20T21:57:33.699Z,99240.13
2022-08-20T22:00:06.106Z,99271.38
2022-08-20T22:02:33.104Z,99315.63
2022-08-20T22:05:00.056Z,99196.97
2022-08-20T22:07:27.169Z,99286.41
2022-08-20T22:09:54.147Z,99149.84
2022-08-20T22:12:26.741Z,99334.50
2022-08-20T22:14:54.936Z,99241.19
2022-08-20T22:17:22.136Z,99203.84
2022-08-20T22:19:49.570Z,99173.59
2022-08-20T22:22:20.862Z,99150.22
2022-08-20T22:24:47.999Z,99346.16
2022-08-20T22:27:15.234Z,99311.16
2022-08-20T22:29:42.650Z,99274.03
2022-08-20T22:32:10.640Z,99305.16
2022-08-20T22:34:38.208Z,99313.75
2022-08-20T22:37:06.199Z,99293.91
2022-08-20T22:39:33.409Z,99209.72
2022-08-20T22:42:00.631Z,99310.72
2022-08-20T22:44:27.690Z,99357.03
2022-08-20T22:47:00.109Z,99260.28
2022-08-20T22:49:32.173Z,99175.88
2022-08-20T22:51:59.886Z,99223.13
2022-08-20T22:54:27.598Z,99302.28
2022-08-20T22:56:55.115Z,99335.50
2022-08-20T22:59:23.482Z,99179.41
2022-08-20T23:01:51.904Z,99231.53
2022-08-20T23:04:28.750Z,99182.72
2022-08-20T23:06:57.781Z,99214.81
2022-08-20T23:09:26.591Z,99202.53
2022-08-20T23:11:53.863Z,99142.97
2022-08-20T23:14:21.855Z,99275.16
2022-08-20T23:16:59.817Z,99328.97
2022-08-20T23:19:27.185Z,99262.19
2022-08-20T23:21:54.548Z,99085.78
2022-08-20T23:24:21.810Z,99145.31
2022-08-20T23:26:53.035Z,99261.66
2022-08-20T23:29:25.462Z,99267.63
2022-08-20T23:31:57.306Z,99310.28
2022-08-20T23:34:25.993Z,99174.22
2022-08-20T23:36:56.557Z,99257.97
2022-08-20T23:39:25.147Z,99245.75
2022-08-20T23:41:52.663Z,99285.44
2022-08-20T23:44:26.101Z,99184.31
2022-08-20T23:47:01.933Z,99115.59
2022-08-20T23:49:31.375Z,99261.69
2022-08-20T23:52:00.581Z,99266.56
2022-08-20T23:54:32.930Z,99220.38
2022-08-20T23:57:00.263Z,99232.53
2022-08-20T23:59:27.353Z,99221.78
